This is the latest recevied weather packets stored in our database for station/object 9M4RBN-3. If no packets are shown the sender has not sent any weather packets the latest 10 day(s).
| Time | Temp. | Humidity | Pressure | Rain* | Wind** | Luminosity | Snow |
|---|---|---|---|---|---|---|---|
| 1788073452 | 26.11° C | 50% | 1016.1 hPa | - | - | - | - |
| 1788072552 | 25.56° C | 51% | 1016.3 hPa | - | - | - | - |
| 1788071652 | 25.56° C | 51% | 1016.6 hPa | - | - | - | - |
| 1788070752 | 25.56° C | 51% | 1016.9 hPa | - | - | - | - |
| 1788069852 | 25.56° C | 51% | 1017.2 hPa | - | - | - | - |
| 1788068951 | 25.56° C | 51% | 1017.3 hPa | - | - | - | - |
| 1788068051 | 25.56° C | 51% | 1017.5 hPa | - | - | - | - |
| 1788067151 | 25.56° C | 50% | 1017.5 hPa | - | - | - | - |
| 1788066251 | 25.56° C | 51% | 1017.8 hPa | - | - | - | - |
| 1788065351 | 26.11° C | 50% | 1017.9 hPa | - | - | - | - |
| 1788064451 | 26.67° C | 51% | 1018.1 hPa | - | - | - | - |
| 1788063551 | 27.22° C | 60% | 1018.4 hPa | - | - | - | - |
| 1788062651 | 27.78° C | 73% | 1018.5 hPa | - | - | - | - |
| 1788061751 | 27.22° C | 72% | 1018.4 hPa | - | - | - | - |
| 1788060853 | 27.22° C | 71% | 1018.6 hPa | - | - | - | - |
| 1788059953 | 27.22° C | 71% | 1018.8 hPa | - | - | - | - |
| 1788059052 | 27.22° C | 71% | 1018.8 hPa | - | - | - | - |
| 1788058152 | 27.22° C | 70% | 1018.6 hPa | - | - | - | - |
| 1788057252 | 26.67° C | 70% | 1018.6 hPa | - | - | - | - |
| 1788056352 | 26.67° C | 71% | 1018.6 hPa | - | - | - | - |
| 1788055452 | 26.67° C | 71% | 1018.6 hPa | - | - | - | - |
| 1788054552 | 26.67° C | 69% | 1018.5 hPa | - | - | - | - |
| 1788053652 | 26.67° C | 69% | 1018.6 hPa | - | - | - | - |
| 1788052752 | 26.67° C | 69% | 1018.6 hPa | - | - | - | - |
| 1788051852 | 26.11° C | 68% | 1018.6 hPa | - | - | - | - |
* Rain since midnight (hover to see other rain measurements)
** Current wind speed in m/s (hover to see current wind gust speed)